sensor_id;sensor_type;location;lat;lon;timestamp;temperature;humidity
48376;DHT22;34178;50.904;11.560;2022-11-11T00:00:28;4.90;99.90
48376;DHT22;34178;50.904;11.560;2022-11-11T00:02:55;4.80;99.90
48376;DHT22;34178;50.904;11.560;2022-11-11T00:05:21;4.80;99.90
48376;DHT22;34178;50.904;11.560;2022-11-11T00:07:47;4.80;99.90
48376;DHT22;34178;50.904;11.560;2022-11-11T00:10:13;4.80;99.90
48376;DHT22;34178;50.904;11.560;2022-11-11T00:12:39;4.80;99.90
48376;DHT22;34178;50.904;11.560;2022-11-11T00:15:05;4.70;99.90
48376;DHT22;34178;50.904;11.560;2022-11-11T00:17:32;4.70;99.90
48376;DHT22;34178;50.904;11.560;2022-11-11T00:20:17;4.70;99.90
48376;DHT22;34178;50.904;11.560;2022-11-11T00:23:01;4.70;99.90
48376;DHT22;34178;50.904;11.560;2022-11-11T00:25:45;4.60;99.90
48376;DHT22;34178;50.904;11.560;2022-11-11T00:28:10;4.70;99.90
48376;DHT22;34178;50.904;11.560;2022-11-11T00:30:36;4.60;99.90
48376;DHT22;34178;50.904;11.560;2022-11-11T00:33:02;4.60;99.90
48376;DHT22;34178;50.904;11.560;2022-11-11T00:35:27;4.60;99.90
48376;DHT22;34178;50.904;11.560;2022-11-11T00:38:13;4.60;99.90
48376;DHT22;34178;50.904;11.560;2022-11-11T00:40:58;4.50;99.90
48376;DHT22;34178;50.904;11.560;2022-11-11T00:43:24;4.50;99.90
48376;DHT22;34178;50.904;11.560;2022-11-11T00:45:50;4.50;99.90
48376;DHT22;34178;50.904;11.560;2022-11-11T00:48:16;4.50;99.90
48376;DHT22;34178;50.904;11.560;2022-11-11T00:51:00;4.50;99.90
48376;DHT22;34178;50.904;11.560;2022-11-11T00:53:30;4.50;99.90
48376;DHT22;34178;50.904;11.560;2022-11-11T00:56:04;4.40;99.90
48376;DHT22;34178;50.904;11.560;2022-11-11T00:58:30;4.40;99.90
48376;DHT22;34178;50.904;11.560;2022-11-11T01:00:56;4.40;99.90
48376;DHT22;34178;50.904;11.560;2022-11-11T01:03:22;4.50;99.90
48376;DHT22;34178;50.904;11.560;2022-11-11T01:05:48;4.50;99.90
48376;DHT22;34178;50.904;11.560;2022-11-11T01:08:14;4.40;99.90
48376;DHT22;34178;50.904;11.560;2022-11-11T01:10:39;4.40;99.90
48376;DHT22;34178;50.904;11.560;2022-11-11T01:13:23;4.40;99.90
48376;DHT22;34178;50.904;11.560;2022-11-11T01:15:51;4.50;99.90
48376;DHT22;34178;50.904;11.560;2022-11-11T01:18:20;4.50;99.90
48376;DHT22;34178;50.904;11.560;2022-11-11T01:20:46;4.50;99.90
48376;DHT22;34178;50.904;11.560;2022-11-11T01:23:13;4.50;99.90
48376;DHT22;34178;50.904;11.560;2022-11-11T01:25:41;4.50;99.90
48376;DHT22;34178;50.904;11.560;2022-11-11T01:28:07;4.40;99.90
48376;DHT22;34178;50.904;11.560;2022-11-11T01:30:34;4.50;99.90
48376;DHT22;34178;50.904;11.560;2022-11-11T01:33:01;4.50;99.90
48376;DHT22;34178;50.904;11.560;2022-11-11T01:35:27;4.30;99.90
48376;DHT22;34178;50.904;11.560;2022-11-11T01:37:52;4.20;99.90
48376;DHT22;34178;50.904;11.560;2022-11-11T01:40:18;4.30;99.90
48376;DHT22;34178;50.904;11.560;2022-11-11T01:42:51;4.30;99.90
48376;DHT22;34178;50.904;11.560;2022-11-11T01:48:30;4.20;99.90
48376;DHT22;34178;50.904;11.560;2022-11-11T01:51:41;4.10;99.90
48376;DHT22;34178;50.904;11.560;2022-11-11T01:54:31;4.20;99.90
48376;DHT22;34178;50.904;11.560;2022-11-11T01:57:03;4.10;99.90
48376;DHT22;34178;50.904;11.560;2022-11-11T01:59:30;4.20;99.90
48376;DHT22;34178;50.904;11.560;2022-11-11T02:01:57;4.20;99.90
48376;DHT22;34178;50.904;11.560;2022-11-11T02:04:24;4.20;99.90
48376;DHT22;34178;50.904;11.560;2022-11-11T02:07:09;4.20;99.90
48376;DHT22;34178;50.904;11.560;2022-11-11T02:09:38;4.20;99.90
48376;DHT22;34178;50.904;11.560;2022-11-11T02:12:08;4.10;99.90
48376;DHT22;34178;50.904;11.560;2022-11-11T02:14:56;4.10;99.90
48376;DHT22;34178;50.904;11.560;2022-11-11T02:17:23;3.90;99.90
48376;DHT22;34178;50.904;11.560;2022-11-11T02:19:59;3.90;99.90
48376;DHT22;34178;50.904;11.560;2022-11-11T02:25:06;4.10;99.90
48376;DHT22;34178;50.904;11.560;2022-11-11T02:27:36;4.10;99.90
48376;DHT22;34178;50.904;11.560;2022-11-11T02:30:04;4.00;99.90
48376;DHT22;34178;50.904;11.560;2022-11-11T02:32:30;3.90;99.90
48376;DHT22;34178;50.904;11.560;2022-11-11T02:34:56;3.80;99.90
48376;DHT22;34178;50.904;11.560;2022-11-11T02:37:24;3.90;99.90
48376;DHT22;34178;50.904;11.560;2022-11-11T02:39:53;3.90;99.90
48376;DHT22;34178;50.904;11.560;2022-11-11T02:42:21;3.90;99.90
48376;DHT22;34178;50.904;11.560;2022-11-11T02:44:47;3.90;99.90
48376;DHT22;34178;50.904;11.560;2022-11-11T02:47:13;3.70;99.90
48376;DHT22;34178;50.904;11.560;2022-11-11T02:49:39;3.80;99.90
48376;DHT22;34178;50.904;11.560;2022-11-11T02:52:05;3.80;99.90
48376;DHT22;34178;50.904;11.560;2022-11-11T02:54:30;3.80;99.90
48376;DHT22;34178;50.904;11.560;2022-11-11T02:56:56;3.90;99.90
48376;DHT22;34178;50.904;11.560;2022-11-11T02:59:35;3.90;99.90
48376;DHT22;34178;50.904;11.560;2022-11-11T03:02:01;3.90;99.90
48376;DHT22;34178;50.904;11.560;2022-11-11T03:04:27;3.90;99.90
48376;DHT22;34178;50.904;11.560;2022-11-11T03:06:52;4.00;99.90
48376;DHT22;34178;50.904;11.560;2022-11-11T03:09:18;4.00;99.90
48376;DHT22;34178;50.904;11.560;2022-11-11T03:11:44;3.90;99.90
48376;DHT22;34178;50.904;11.560;2022-11-11T03:14:09;3.90;99.90
48376;DHT22;34178;50.904;11.560;2022-11-11T03:16:35;3.90;99.90
48376;DHT22;34178;50.904;11.560;2022-11-11T03:19:19;3.90;99.90
48376;DHT22;34178;50.904;11.560;2022-11-11T03:21:45;3.90;99.90
48376;DHT22;34178;50.904;11.560;2022-11-11T03:24:11;3.80;99.90
48376;DHT22;34178;50.904;11.560;2022-11-11T03:26:38;3.80;99.90
48376;DHT22;34178;50.904;11.560;2022-11-11T03:29:03;3.70;99.90
48376;DHT22;34178;50.904;11.560;2022-11-11T03:31:29;3.70;99.90
48376;DHT22;34178;50.904;11.560;2022-11-11T05:18:33;3.60;99.90
48376;DHT22;34178;50.904;11.560;2022-11-11T05:21:29;3.60;99.90
48376;DHT22;34178;50.904;11.560;2022-11-11T05:23:55;3.60;99.90
48376;DHT22;34178;50.904;11.560;2022-11-11T05:26:40;3.50;99.90
48376;DHT22;34178;50.904;11.560;2022-11-11T05:29:06;3.50;99.90
48376;DHT22;34178;50.904;11.560;2022-11-11T05:31:32;3.50;99.90
48376;DHT22;34178;50.904;11.560;2022-11-11T05:33:57;3.50;99.90
48376;DHT22;34178;50.904;11.560;2022-11-11T05:36:23;3.40;99.90
48376;DHT22;34178;50.904;11.560;2022-11-11T05:38:49;3.40;99.90
48376;DHT22;34178;50.904;11.560;2022-11-11T05:41:14;3.40;99.90
48376;DHT22;34178;50.904;11.560;2022-11-11T05:43:40;3.40;99.90
48376;DHT22;34178;50.904;11.560;2022-11-11T05:46:05;3.30;99.90
48376;DHT22;34178;50.904;11.560;2022-11-11T05:48:31;3.30;99.90
48376;DHT22;34178;50.904;11.560;2022-11-11T05:50:57;3.30;99.90
48376;DHT22;34178;50.904;11.560;2022-11-11T05:58:59;3.40;99.90
48376;DHT22;34178;50.904;11.560;2022-11-11T06:01:25;3.30;99.90
48376;DHT22;34178;50.904;11.560;2022-11-11T06:03:50;3.30;99.90
48376;DHT22;34178;50.904;11.560;2022-11-11T06:06:16;3.20;99.90
48376;DHT22;34178;50.904;11.560;2022-11-11T06:08:42;3.20;99.90
48376;DHT22;34178;50.904;11.560;2022-11-11T06:11:07;3.10;99.90
48376;DHT22;34178;50.904;11.560;2022-11-11T06:13:33;3.10;99.90
48376;DHT22;34178;50.904;11.560;2022-11-11T06:15:59;3.10;99.90
48376;DHT22;34178;50.904;11.560;2022-11-11T06:18:25;3.20;99.90
48376;DHT22;34178;50.904;11.560;2022-11-11T06:20:55;3.20;99.90
48376;DHT22;34178;50.904;11.560;2022-11-11T06:25:57;3.30;99.90
48376;DHT22;34178;50.904;11.560;2022-11-11T06:28:51;3.30;99.90
48376;DHT22;34178;50.904;11.560;2022-11-11T06:31:22;3.20;99.90
48376;DHT22;34178;50.904;11.560;2022-11-11T06:33:49;3.30;99.90
48376;DHT22;34178;50.904;11.560;2022-11-11T06:36:17;3.40;99.90
48376;DHT22;34178;50.904;11.560;2022-11-11T06:38:43;3.40;99.90
48376;DHT22;34178;50.904;11.560;2022-11-11T06:41:10;3.40;99.90
48376;DHT22;34178;50.904;11.560;2022-11-11T07:25:06;4.10;99.90
48376;DHT22;34178;50.904;11.560;2022-11-11T07:27:35;4.30;99.90
48376;DHT22;34178;50.904;11.560;2022-11-11T07:30:00;4.30;99.90
48376;DHT22;34178;50.904;11.560;2022-11-11T07:32:26;4.40;99.90
48376;DHT22;34178;50.904;11.560;2022-11-11T07:34:52;4.40;99.90
48376;DHT22;34178;50.904;11.560;2022-11-11T07:37:17;4.50;99.90
48376;DHT22;34178;50.904;11.560;2022-11-11T07:39:44;4.50;99.90
48376;DHT22;34178;50.904;11.560;2022-11-11T09:25:39;8.50;99.90
48376;DHT22;34178;50.904;11.560;2022-11-11T09:28:05;8.50;99.90
48376;DHT22;34178;50.904;11.560;2022-11-11T09:30:30;8.50;99.90
48376;DHT22;34178;50.904;11.560;2022-11-11T09:33:03;8.50;99.90
48376;DHT22;34178;50.904;11.560;2022-11-11T09:35:29;8.60;99.90
48376;DHT22;34178;50.904;11.560;2022-11-11T09:37:57;8.50;99.90
48376;DHT22;34178;50.904;11.560;2022-11-11T09:40:25;8.50;99.90
48376;DHT22;34178;50.904;11.560;2022-11-11T09:48:24;8.70;99.90
48376;DHT22;34178;50.904;11.560;2022-11-11T09:50:53;8.90;99.90
48376;DHT22;34178;50.904;11.560;2022-11-11T10:04:42;9.40;99.90
48376;DHT22;34178;50.904;11.560;2022-11-11T10:06:39;9.40;99.90
48376;DHT22;34178;50.904;11.560;2022-11-11T10:09:13;9.60;99.90
48376;DHT22;34178;50.904;11.560;2022-11-11T10:23:02;10.20;99.90
48376;DHT22;34178;50.904;11.560;2022-11-11T10:25:30;10.30;99.90
48376;DHT22;34178;50.904;11.560;2022-11-11T10:27:58;10.40;99.90
48376;DHT22;34178;50.904;11.560;2022-11-11T10:30:29;10.40;99.90
48376;DHT22;34178;50.904;11.560;2022-11-11T10:40:53;10.80;99.90
48376;DHT22;34178;50.904;11.560;2022-11-11T10:43:22;10.90;99.90
48376;DHT22;34178;50.904;11.560;2022-11-11T10:46:01;11.00;99.90
48376;DHT22;34178;50.904;11.560;2022-11-11T10:51:17;11.20;99.90
48376;DHT22;34178;50.904;11.560;2022-11-11T10:56:16;11.30;99.90
48376;DHT22;34178;50.904;11.560;2022-11-11T11:01:37;11.40;99.90
48376;DHT22;34178;50.904;11.560;2022-11-11T11:04:13;11.40;99.90
48376;DHT22;34178;50.904;11.560;2022-11-11T11:06:43;11.50;99.90
48376;DHT22;34178;50.904;11.560;2022-11-11T11:09:22;11.60;99.90
48376;DHT22;34178;50.904;11.560;2022-11-11T11:14:47;11.80;99.90
48376;DHT22;34178;50.904;11.560;2022-11-11T11:17:21;12.00;99.90
48376;DHT22;34178;50.904;11.560;2022-11-11T11:22:55;12.40;99.90
48376;DHT22;34178;50.904;11.560;2022-11-11T11:25:25;12.60;99.90
48376;DHT22;34178;50.904;11.560;2022-11-11T11:27:52;12.90;99.90
48376;DHT22;34178;50.904;11.560;2022-11-11T11:30:28;13.10;99.90
48376;DHT22;34178;50.904;11.560;2022-11-11T11:33:01;13.30;99.90
48376;DHT22;34178;50.904;11.560;2022-11-11T11:35:39;13.60;99.90
48376;DHT22;34178;50.904;11.560;2022-11-11T11:38:07;13.90;99.90
48376;DHT22;34178;50.904;11.560;2022-11-11T11:40:52;14.20;99.90
48376;DHT22;34178;50.904;11.560;2022-11-11T11:43:40;14.40;99.90
48376;DHT22;34178;50.904;11.560;2022-11-11T11:46:38;14.60;99.90
48376;DHT22;34178;50.904;11.560;2022-11-11T11:51:47;15.10;99.90
48376;DHT22;34178;50.904;11.560;2022-11-11T12:00:00;15.40;99.90
48376;DHT22;34178;50.904;11.560;2022-11-11T12:05:49;15.70;99.70
48376;DHT22;34178;50.904;11.560;2022-11-11T14:52:33;14.00;99.90
48376;DHT22;34178;50.904;11.560;2022-11-11T14:55:21;13.80;99.90
48376;DHT22;34178;50.904;11.560;2022-11-11T15:00:32;13.50;99.90
48376;DHT22;34178;50.904;11.560;2022-11-11T15:54:45;10.60;99.90
48376;DHT22;34178;50.904;11.560;2022-11-11T15:59:51;10.40;99.90
48376;DHT22;34178;50.904;11.560;2022-11-11T16:07:24;10.10;99.90
48376;DHT22;34178;50.904;11.560;2022-11-11T16:09:52;10.00;99.90
48376;DHT22;34178;50.904;11.560;2022-11-11T16:12:25;9.90;99.90
48376;DHT22;34178;50.904;11.560;2022-11-11T16:14:53;9.80;99.90
48376;DHT22;34178;50.904;11.560;2022-11-11T16:17:24;9.70;99.90
48376;DHT22;34178;50.904;11.560;2022-11-11T16:19:51;9.60;99.90
48376;DHT22;34178;50.904;11.560;2022-11-11T16:27:30;9.50;99.90
48376;DHT22;34178;50.904;11.560;2022-11-11T16:30:35;9.50;99.90
48376;DHT22;34178;50.904;11.560;2022-11-11T16:35:37;9.30;99.90
48376;DHT22;34178;50.904;11.560;2022-11-11T16:38:04;9.30;99.90
48376;DHT22;34178;50.904;11.560;2022-11-11T16:53:28;8.80;99.90
48376;DHT22;34178;50.904;11.560;2022-11-11T16:56:00;8.80;99.90
48376;DHT22;34178;50.904;11.560;2022-11-11T16:58:27;8.70;99.90
48376;DHT22;34178;50.904;11.560;2022-11-11T17:00:59;8.60;99.90
48376;DHT22;34178;50.904;11.560;2022-11-11T17:14:06;8.40;99.90
48376;DHT22;34178;50.904;11.560;2022-11-11T17:16:32;8.30;99.90
48376;DHT22;34178;50.904;11.560;2022-11-11T17:19:02;8.20;99.90
48376;DHT22;34178;50.904;11.560;2022-11-11T17:21:27;8.20;99.90
48376;DHT22;34178;50.904;11.560;2022-11-11T17:36:50;7.70;99.90
48376;DHT22;34178;50.904;11.560;2022-11-11T17:39:15;7.60;99.90
48376;DHT22;34178;50.904;11.560;2022-11-11T17:41:41;7.50;99.90
48376;DHT22;34178;50.904;11.560;2022-11-11T17:46:39;7.40;99.90
48376;DHT22;34178;50.904;11.560;2022-11-11T17:49:05;7.50;99.90
48376;DHT22;34178;50.904;11.560;2022-11-11T17:51:31;7.40;99.90
48376;DHT22;34178;50.904;11.560;2022-11-11T17:56:32;7.20;99.90
48376;DHT22;34178;50.904;11.560;2022-11-11T17:58:57;7.20;99.90
48376;DHT22;34178;50.904;11.560;2022-11-11T18:01:23;7.20;99.90
48376;DHT22;34178;50.904;11.560;2022-11-11T18:14:10;7.00;99.90
48376;DHT22;34178;50.904;11.560;2022-11-11T18:16:37;7.00;99.90
48376;DHT22;34178;50.904;11.560;2022-11-11T18:19:03;7.00;99.90
48376;DHT22;34178;50.904;11.560;2022-11-11T18:21:30;6.90;99.90
48376;DHT22;34178;50.904;11.560;2022-11-11T18:23:56;6.90;99.90
48376;DHT22;34178;50.904;11.560;2022-11-11T18:26:23;6.90;99.90
48376;DHT22;34178;50.904;11.560;2022-11-11T18:28:48;6.90;99.90
48376;DHT22;34178;50.904;11.560;2022-11-11T18:31:14;6.90;99.90
48376;DHT22;34178;50.904;11.560;2022-11-11T19:33:13;5.90;99.90
48376;DHT22;34178;50.904;11.560;2022-11-11T19:35:39;6.00;99.90
48376;DHT22;34178;50.904;11.560;2022-11-11T19:38:04;5.90;99.90
48376;DHT22;34178;50.904;11.560;2022-11-11T19:40:30;5.90;99.90
48376;DHT22;34178;50.904;11.560;2022-11-11T21:16:15;4.90;99.90
48376;DHT22;34178;50.904;11.560;2022-11-11T21:18:41;4.90;99.90
48376;DHT22;34178;50.904;11.560;2022-11-11T21:21:14;4.90;99.90
48376;DHT22;34178;50.904;11.560;2022-11-11T21:23:41;4.90;99.90
48376;DHT22;34178;50.904;11.560;2022-11-11T21:26:09;4.90;99.90
48376;DHT22;34178;50.904;11.560;2022-11-11T21:28:36;4.90;99.90
48376;DHT22;34178;50.904;11.560;2022-11-11T21:31:11;4.80;99.90
48376;DHT22;34178;50.904;11.560;2022-11-11T21:33:38;4.80;99.90
48376;DHT22;34178;50.904;11.560;2022-11-11T21:36:09;4.80;99.90
48376;DHT22;34178;50.904;11.560;2022-11-11T21:38:35;4.70;99.90
48376;DHT22;34178;50.904;11.560;2022-11-11T21:41:07;4.70;99.90
48376;DHT22;34178;50.904;11.560;2022-11-11T21:43:37;4.70;99.90
48376;DHT22;34178;50.904;11.560;2022-11-11T21:46:08;4.70;99.90
48376;DHT22;34178;50.904;11.560;2022-11-11T21:48:34;4.60;99.90
48376;DHT22;34178;50.904;11.560;2022-11-11T21:51:27;4.60;99.90
48376;DHT22;34178;50.904;11.560;2022-11-11T21:53:54;4.60;99.90
48376;DHT22;34178;50.904;11.560;2022-11-11T21:56:24;4.60;99.90
48376;DHT22;34178;50.904;11.560;2022-11-11T21:58:52;4.60;99.90
48376;DHT22;34178;50.904;11.560;2022-11-11T22:01:20;4.50;99.90
48376;DHT22;34178;50.904;11.560;2022-11-11T23:34:15;3.90;99.90
48376;DHT22;34178;50.904;11.560;2022-11-11T23:36:41;3.80;99.90
48376;DHT22;34178;50.904;11.560;2022-11-11T23:39:07;3.80;99.90
48376;DHT22;34178;50.904;11.560;2022-11-11T23:41:32;3.80;99.90
